createdAt,value
2022-07-29T00:02:00.940Z,1.70
2022-07-29T00:04:30.494Z,1.90
2022-07-29T00:07:00.414Z,1.30
2022-07-29T00:09:29.243Z,1.70
2022-07-29T00:12:01.142Z,1.70
2022-07-29T00:16:58.646Z,1.60
2022-07-29T00:19:27.336Z,1.85
2022-07-29T00:21:55.948Z,1.70
2022-07-29T00:24:26.240Z,1.50
2022-07-29T00:26:55.885Z,1.67
2022-07-29T00:29:34.086Z,1.98
2022-07-29T00:32:04.433Z,1.98
2022-07-29T00:34:51.211Z,1.90
2022-07-29T00:37:20.625Z,1.80
2022-07-29T00:39:50.674Z,1.58
2022-07-29T00:42:19.209Z,1.63
2022-07-29T00:44:47.783Z,1.85
2022-07-29T00:47:16.427Z,1.55
2022-07-29T00:49:45.021Z,1.85
2022-07-29T00:52:16.969Z,1.75
2022-07-29T00:54:46.280Z,1.50
2022-07-29T00:57:16.918Z,1.80
2022-07-29T00:59:45.571Z,1.05
2022-07-29T01:02:14.306Z,1.60
2022-07-29T01:04:44.450Z,1.90
2022-07-29T01:07:14.391Z,1.60
2022-07-29T01:09:46.598Z,2.20
2022-07-29T01:12:20.594Z,1.70
2022-07-29T01:14:51.195Z,1.98
2022-07-29T01:17:26.365Z,1.60
2022-07-29T01:20:00.505Z,1.50
2022-07-29T01:22:58.870Z,1.83
2022-07-29T01:25:53.241Z,1.77
2022-07-29T01:28:51.749Z,2.10
2022-07-29T01:31:27.299Z,1.50
2022-07-29T01:34:03.849Z,1.70
2022-07-29T01:36:37.250Z,1.60
2022-07-29T01:39:11.271Z,1.85
2022-07-29T01:41:46.565Z,1.50
2022-07-29T01:44:21.301Z,1.92
2022-07-29T01:46:58.683Z,1.48
2022-07-29T01:49:32.073Z,1.42
2022-07-29T01:52:04.713Z,1.40
2022-07-29T01:54:38.011Z,1.60
2022-07-29T01:57:09.731Z,2.00
2022-07-29T01:59:40.885Z,1.77
2022-07-29T02:02:12.849Z,2.13
2022-07-29T02:04:43.571Z,1.75
2022-07-29T02:07:15.661Z,1.65
2022-07-29T02:09:45.983Z,1.55
2022-07-29T02:12:15.662Z,1.70
2022-07-29T02:14:49.322Z,1.42
2022-07-29T02:17:24.652Z,1.60
2022-07-29T02:19:56.906Z,1.55
2022-07-29T02:22:27.719Z,1.50
2022-07-29T02:24:58.027Z,1.73
2022-07-29T02:27:29.515Z,1.75
2022-07-29T02:30:03.022Z,1.45
2022-07-29T02:32:32.769Z,1.60
2022-07-29T02:35:04.026Z,1.38
2022-07-29T02:37:34.533Z,1.50
2022-07-29T02:40:04.043Z,1.63
2022-07-29T02:42:34.878Z,1.50
2022-07-29T02:45:05.647Z,1.42
2022-07-29T02:47:44.247Z,1.58
2022-07-29T02:50:18.039Z,1.40
2022-07-29T02:52:56.113Z,1.30
2022-07-29T02:55:32.112Z,1.42
2022-07-29T02:58:04.885Z,1.17
2022-07-29T03:00:39.099Z,1.30
2022-07-29T03:03:13.370Z,1.08
2022-07-29T03:05:42.788Z,1.20
2022-07-29T03:08:14.281Z,1.30
2022-07-29T03:10:46.960Z,1.67
2022-07-29T03:13:16.786Z,1.33
2022-07-29T03:15:48.095Z,1.45
2022-07-29T03:18:17.721Z,1.50
2022-07-29T03:20:47.449Z,1.55
2022-07-29T03:23:22.073Z,1.20
2022-07-29T03:25:51.032Z,1.63
2022-07-29T03:28:19.993Z,1.50
2022-07-29T03:30:53.510Z,1.35
2022-07-29T03:33:24.361Z,1.92
2022-07-29T03:35:53.245Z,1.55
2022-07-29T03:38:26.065Z,1.95
2022-07-29T03:40:58.949Z,1.73
2022-07-29T03:43:32.544Z,1.80
2022-07-29T03:46:06.747Z,1.80
2022-07-29T03:48:39.468Z,1.58
2022-07-29T03:51:09.008Z,1.33
2022-07-29T03:53:38.600Z,1.20
2022-07-29T03:56:09.922Z,1.35
2022-07-29T03:58:39.956Z,1.48
2022-07-29T04:01:11.853Z,1.20
2022-07-29T04:03:41.495Z,1.27
2022-07-29T04:06:10.462Z,1.15
2022-07-29T04:08:39.004Z,1.50
2022-07-29T04:11:08.357Z,1.30
2022-07-29T04:13:37.990Z,1.17
2022-07-29T04:16:10.736Z,1.08
2022-07-29T04:18:39.447Z,1.27
2022-07-29T04:21:08.226Z,1.33
2022-07-29T04:23:47.926Z,1.20
2022-07-29T04:26:22.375Z,1.17
2022-07-29T04:28:51.368Z,1.48
2022-07-29T04:31:25.760Z,1.40
2022-07-29T04:33:56.037Z,1.58
2022-07-29T04:36:28.618Z,1.42
2022-07-29T04:38:59.365Z,1.40
2022-07-29T04:41:32.710Z,1.10
2022-07-29T04:44:07.228Z,1.17
2022-07-29T04:46:37.904Z,1.77
2022-07-29T04:49:07.096Z,1.55
2022-07-29T04:51:36.000Z,1.25
2022-07-29T04:54:04.497Z,1.30
2022-07-29T04:56:33.307Z,1.40
2022-07-29T04:59:03.133Z,1.50
2022-07-29T05:01:32.471Z,1.50
2022-07-29T05:04:03.123Z,1.40
2022-07-29T05:06:32.337Z,1.55
2022-07-29T05:09:01.100Z,1.80
2022-07-29T05:11:30.580Z,2.40
2022-07-29T05:14:00.296Z,2.22
2022-07-29T05:16:29.047Z,1.83
2022-07-29T05:18:58.457Z,2.00
2022-07-29T05:21:28.805Z,2.17
2022-07-29T05:23:57.525Z,2.38
2022-07-29T05:26:26.340Z,2.38
2022-07-29T05:28:56.118Z,2.50
2022-07-29T05:31:26.601Z,2.40
2022-07-29T05:33:55.415Z,2.50
2022-07-29T05:36:24.168Z,2.25
2022-07-29T05:38:54.441Z,2.28
2022-07-29T05:41:23.421Z,2.35
2022-07-29T05:43:51.916Z,2.50
2022-07-29T05:46:21.451Z,2.33
2022-07-29T05:48:50.093Z,4.13
2022-07-29T05:51:18.742Z,3.85
2022-07-29T05:53:49.146Z,3.33
2022-07-29T05:56:19.024Z,2.70
2022-07-29T05:58:48.214Z,2.38
2022-07-29T06:01:17.406Z,2.25
2022-07-29T06:03:46.471Z,2.13
2022-07-29T06:06:15.681Z,1.92
2022-07-29T06:08:44.445Z,1.77
2022-07-29T06:11:13.137Z,1.95
2022-07-29T06:13:43.379Z,1.95
2022-07-29T06:16:12.088Z,1.98
2022-07-29T06:18:45.056Z,1.67
2022-07-29T06:21:14.533Z,1.95
2022-07-29T06:23:44.372Z,1.70
2022-07-29T06:26:12.875Z,1.80
2022-07-29T06:28:42.992Z,1.63
2022-07-29T06:31:11.978Z,1.80
2022-07-29T06:33:41.077Z,1.70
2022-07-29T06:36:10.407Z,1.88
2022-07-29T06:38:44.842Z,1.80
2022-07-29T06:41:19.247Z,1.77
2022-07-29T06:43:51.959Z,1.40
2022-07-29T06:46:24.489Z,1.00
2022-07-29T06:48:54.563Z,1.42
2022-07-29T06:51:24.235Z,1.30
2022-07-29T06:53:59.466Z,1.27
2022-07-29T06:56:38.108Z,1.40
2022-07-29T06:59:12.673Z,1.17
2022-07-29T07:01:43.635Z,1.50
2022-07-29T07:04:14.789Z,1.50
2022-07-29T07:06:43.766Z,1.27
2022-07-29T07:09:13.066Z,0.98
2022-07-29T07:11:41.826Z,1.88
2022-07-29T07:14:11.965Z,1.30
2022-07-29T07:16:40.599Z,1.27
2022-07-29T07:19:09.641Z,1.10
2022-07-29T07:21:38.991Z,1.23
2022-07-29T07:24:08.509Z,1.20
2022-07-29T07:26:37.250Z,1.20
2022-07-29T07:29:06.104Z,0.80
2022-07-29T07:31:36.074Z,0.77
2022-07-29T07:34:06.012Z,1.00
2022-07-29T07:36:34.798Z,1.30
2022-07-29T07:39:04.623Z,0.95
2022-07-29T07:41:33.241Z,1.70
2022-07-29T07:44:02.459Z,1.60
2022-07-29T07:46:31.451Z,0.95
2022-07-29T07:49:01.740Z,1.17
2022-07-29T07:51:30.498Z,0.90
2022-07-29T07:54:00.737Z,0.75
2022-07-29T07:56:35.340Z,0.75
2022-07-29T07:59:04.237Z,1.15
2022-07-29T08:01:55.764Z,0.70
2022-07-29T08:04:27.726Z,1.10
2022-07-29T08:06:58.050Z,1.08
2022-07-29T08:09:30.090Z,0.90
2022-07-29T08:12:00.237Z,1.02
2022-07-29T08:14:28.852Z,0.98
2022-07-29T08:16:57.849Z,1.20
2022-07-29T08:19:27.881Z,0.77
2022-07-29T08:21:57.191Z,0.85
2022-07-29T08:24:43.578Z,0.90
2022-07-29T08:27:40.747Z,0.80
2022-07-29T08:30:02.525Z,0.70
2022-07-29T08:32:52.693Z,0.80
2022-07-29T08:35:23.322Z,0.80
2022-07-29T08:37:52.402Z,0.85
2022-07-29T08:40:32.109Z,0.90
2022-07-29T08:43:06.522Z,0.60
2022-07-29T08:45:47.267Z,0.88
2022-07-29T08:48:17.410Z,0.80
2022-07-29T08:50:48.963Z,0.50
2022-07-29T08:55:49.497Z,0.70
2022-07-29T08:58:20.419Z,0.63
2022-07-29T09:00:55.917Z,0.80
2022-07-29T09:05:56.504Z,0.50
2022-07-29T09:08:25.608Z,0.88
2022-07-29T09:10:54.602Z,0.63
2022-07-29T09:13:23.680Z,0.70
2022-07-29T09:15:52.285Z,0.70
2022-07-29T09:18:36.137Z,0.60
2022-07-29T09:21:27.355Z,0.73
2022-07-29T09:24:08.082Z,0.50
2022-07-29T09:26:41.510Z,0.47
2022-07-29T09:29:12.440Z,0.60
2022-07-29T09:31:43.152Z,1.02
2022-07-29T09:34:13.113Z,0.40
2022-07-29T09:36:45.430Z,0.50
2022-07-29T09:39:15.592Z,0.55
2022-07-29T09:41:48.547Z,0.38
2022-07-29T09:44:18.491Z,0.80
2022-07-29T09:46:59.483Z,0.82
2022-07-29T09:49:28.661Z,0.35
2022-07-29T09:52:10.104Z,1.20
2022-07-29T09:54:39.701Z,0.50
2022-07-29T09:57:10.980Z,0.60
2022-07-29T09:59:50.186Z,0.70
2022-07-29T10:02:23.725Z,0.93
2022-07-29T10:04:53.592Z,0.38
2022-07-29T10:07:23.915Z,0.73
2022-07-29T10:09:56.895Z,0.30
2022-07-29T10:12:26.976Z,0.40
2022-07-29T10:14:56.045Z,0.75
2022-07-29T10:17:26.150Z,0.85
2022-07-29T10:19:55.048Z,0.32
2022-07-29T10:22:50.735Z,0.50
2022-07-29T10:25:14.354Z,0.30
2022-07-29T10:27:43.661Z,0.30
2022-07-29T10:30:18.195Z,0.40
2022-07-29T10:33:03.604Z,0.73
2022-07-29T10:35:47.442Z,0.55
2022-07-29T10:38:32.916Z,0.30
2022-07-29T10:41:31.869Z,0.57
2022-07-29T10:44:04.551Z,0.65
2022-07-29T10:46:39.038Z,0.50
2022-07-29T10:49:15.852Z,0.57
2022-07-29T10:51:57.828Z,0.80
2022-07-29T10:54:44.156Z,1.27
2022-07-29T10:57:21.621Z,0.60
2022-07-29T11:00:29.588Z,0.32
2022-07-29T11:02:59.513Z,0.50
2022-07-29T11:05:39.858Z,0.47
2022-07-29T11:08:28.072Z,0.70
2022-07-29T11:11:43.966Z,0.63
2022-07-29T11:15:03.723Z,0.82
2022-07-29T11:17:53.210Z,1.73
2022-07-29T11:20:45.957Z,0.85
2022-07-29T11:23:33.456Z,0.63
2022-07-29T11:26:23.431Z,0.60
2022-07-29T11:29:05.571Z,0.60
2022-07-29T11:31:42.650Z,1.02
2022-07-29T11:34:23.381Z,0.57
2022-07-29T11:37:28.074Z,0.30
2022-07-29T11:40:16.454Z,0.50
2022-07-29T11:42:52.195Z,0.95
2022-07-29T11:45:49.795Z,0.63
2022-07-29T11:48:29.608Z,0.70
2022-07-29T11:51:01.636Z,0.50
2022-07-29T11:53:33.434Z,0.50
2022-07-29T11:56:03.878Z,1.20
2022-07-29T11:58:34.118Z,0.70
2022-07-29T12:01:04.740Z,0.50
2022-07-29T12:03:36.883Z,0.50
2022-07-29T12:06:14.985Z,0.57
2022-07-29T12:08:45.326Z,0.88
2022-07-29T12:11:22.978Z,0.60
2022-07-29T12:13:53.465Z,0.90
2022-07-29T12:16:27.955Z,0.52
2022-07-29T12:19:02.911Z,0.70
2022-07-29T12:21:32.336Z,0.80
2022-07-29T12:24:08.802Z,0.70
2022-07-29T12:26:51.060Z,0.63
2022-07-29T12:32:14.658Z,1.10
2022-07-29T12:34:45.416Z,2.10
2022-07-29T12:37:14.550Z,3.13
2022-07-29T12:39:43.687Z,2.00
2022-07-29T12:42:18.270Z,1.27
2022-07-29T12:44:49.495Z,0.85
2022-07-29T12:47:20.370Z,0.80
2022-07-29T12:49:52.503Z,2.00
2022-07-29T12:52:29.374Z,1.88
2022-07-29T12:54:58.265Z,2.00
2022-07-29T12:57:27.819Z,2.03
2022-07-29T13:00:06.608Z,1.77
2022-07-29T13:02:37.545Z,1.40
2022-07-29T13:05:10.623Z,0.80
2022-07-29T13:07:55.483Z,0.68
2022-07-29T13:10:27.131Z,1.20
2022-07-29T13:13:07.553Z,3.00
2022-07-29T13:15:36.889Z,2.63
2022-07-29T13:18:07.577Z,2.30
2022-07-29T13:20:38.265Z,1.27
2022-07-29T13:23:06.962Z,1.08
2022-07-29T13:25:41.992Z,0.68
2022-07-29T13:28:12.526Z,1.17
2022-07-29T13:30:44.570Z,0.80
2022-07-29T13:33:13.944Z,0.60
2022-07-29T13:35:44.559Z,0.60
2022-07-29T13:38:13.365Z,0.73
2022-07-29T13:40:43.387Z,0.60
2022-07-29T13:43:12.272Z,0.85
2022-07-29T13:45:42.398Z,0.60
2022-07-29T13:48:12.334Z,0.80
2022-07-29T13:50:41.255Z,0.98
2022-07-29T13:53:11.552Z,0.65
2022-07-29T13:55:46.897Z,0.68
2022-07-29T13:58:17.044Z,0.80
2022-07-29T14:00:46.147Z,0.80
2022-07-29T14:03:15.057Z,0.85
2022-07-29T14:05:43.836Z,0.70
2022-07-29T14:08:14.397Z,0.70
2022-07-29T14:10:43.315Z,0.90
2022-07-29T14:13:24.969Z,0.90
2022-07-29T14:15:55.243Z,1.10
2022-07-29T14:18:24.249Z,2.40
2022-07-29T14:20:53.698Z,1.65
2022-07-29T14:23:24.466Z,1.33
2022-07-29T14:25:55.281Z,0.95
2022-07-29T14:28:24.015Z,0.90
2022-07-29T14:30:53.178Z,0.60
2022-07-29T14:33:21.976Z,0.68
2022-07-29T14:35:50.645Z,0.63
2022-07-29T14:38:19.736Z,2.42
2022-07-29T14:40:50.857Z,2.50
2022-07-29T14:43:21.780Z,1.13
2022-07-29T14:45:51.129Z,1.08
2022-07-29T14:48:20.168Z,1.00
2022-07-29T14:50:49.317Z,1.08
2022-07-29T14:53:20.228Z,0.85
2022-07-29T14:55:51.400Z,0.60
2022-07-29T14:58:22.263Z,0.55
2022-07-29T15:00:51.110Z,1.13
2022-07-29T15:03:23.922Z,1.40
2022-07-29T15:05:53.482Z,1.20
2022-07-29T15:08:22.786Z,1.38
2022-07-29T15:10:52.739Z,1.80
2022-07-29T15:13:21.253Z,1.02
2022-07-29T15:15:51.007Z,0.93
2022-07-29T15:18:25.419Z,1.88
2022-07-29T15:20:54.640Z,1.23
2022-07-29T15:23:23.863Z,1.17
2022-07-29T15:25:53.863Z,1.05
2022-07-29T15:28:22.649Z,2.30
2022-07-29T15:30:51.338Z,1.30
2022-07-29T15:33:20.295Z,1.05
2022-07-29T15:35:48.979Z,0.85
2022-07-29T15:38:18.415Z,0.68
2022-07-29T15:40:47.702Z,1.00
2022-07-29T15:43:17.910Z,0.70
2022-07-29T15:46:07.589Z,0.77
2022-07-29T15:48:40.846Z,0.73
2022-07-29T15:51:09.457Z,0.52
2022-07-29T15:53:38.425Z,0.90
2022-07-29T15:56:07.991Z,1.08
2022-07-29T15:58:38.102Z,0.77
2022-07-29T16:01:07.561Z,0.53
2022-07-29T16:03:36.782Z,0.68
2022-07-29T16:06:06.132Z,0.50
2022-07-29T16:08:36.460Z,0.50
2022-07-29T16:11:05.749Z,0.80
2022-07-29T16:13:35.102Z,0.60
2022-07-29T16:16:05.946Z,0.85
2022-07-29T16:18:34.896Z,0.60
2022-07-29T16:21:03.846Z,0.70
2022-07-29T16:23:32.844Z,0.80
2022-07-29T16:26:01.739Z,0.88
2022-07-29T16:28:31.034Z,1.00
2022-07-29T16:31:00.243Z,1.30
2022-07-29T16:33:55.660Z,1.33
2022-07-29T16:36:20.322Z,1.00
2022-07-29T16:38:51.223Z,0.70
2022-07-29T16:41:20.269Z,0.50
2022-07-29T16:43:49.080Z,1.15
2022-07-29T16:46:18.823Z,0.80
2022-07-29T16:48:49.746Z,0.98
2022-07-29T16:51:20.449Z,0.70
2022-07-29T16:53:49.754Z,0.65
2022-07-29T16:56:19.678Z,0.73
2022-07-29T16:58:48.667Z,0.70
2022-07-29T17:01:18.267Z,0.73
2022-07-29T17:04:04.349Z,0.70
2022-07-29T17:06:35.257Z,0.73
2022-07-29T17:09:05.290Z,0.70
2022-07-29T17:11:53.686Z,0.55
2022-07-29T17:14:25.738Z,1.17
2022-07-29T17:17:01.054Z,0.85
2022-07-29T17:19:35.455Z,0.68
2022-07-29T17:22:15.494Z,0.95
2022-07-29T17:24:48.051Z,0.80
2022-07-29T17:27:17.873Z,0.82
2022-07-29T17:29:47.567Z,1.02
2022-07-29T17:32:16.921Z,0.95
2022-07-29T17:34:45.788Z,0.75
2022-07-29T17:37:15.746Z,1.05
2022-07-29T17:39:45.612Z,0.52
2022-07-29T17:42:15.612Z,1.15
2022-07-29T17:44:46.330Z,0.93
2022-07-29T17:47:15.863Z,1.25
2022-07-29T17:49:47.600Z,2.75
2022-07-29T17:52:18.696Z,1.52
2022-07-29T17:54:49.354Z,1.60
2022-07-29T17:57:18.268Z,1.50
2022-07-29T17:59:47.321Z,1.58
2022-07-29T18:02:16.568Z,1.30
2022-07-29T18:04:45.689Z,1.35
2022-07-29T18:07:20.596Z,1.40
2022-07-29T18:09:49.873Z,1.42
2022-07-29T18:12:18.492Z,1.10
2022-07-29T18:14:47.368Z,1.50
2022-07-29T18:17:16.247Z,1.50
2022-07-29T18:19:44.866Z,1.48
2022-07-29T18:22:14.434Z,1.90
2022-07-29T18:24:45.052Z,1.67
2022-07-29T18:27:13.547Z,1.80
2022-07-29T18:29:42.800Z,1.75
2022-07-29T18:32:11.462Z,1.70
2022-07-29T18:34:41.301Z,2.17
2022-07-29T18:37:09.837Z,1.98
2022-07-29T18:39:38.331Z,1.83
2022-07-29T18:42:09.080Z,1.48
2022-07-29T18:44:43.522Z,1.63
2022-07-29T18:47:12.500Z,1.92
2022-07-29T18:49:42.628Z,2.22
2022-07-29T18:52:11.177Z,1.35
2022-07-29T18:54:39.977Z,1.50
2022-07-29T18:57:53.364Z,1.33
2022-07-29T18:59:58.525Z,1.55
2022-07-29T19:02:28.102Z,1.40
2022-07-29T19:04:57.489Z,2.00
2022-07-29T19:07:26.985Z,1.15
2022-07-29T19:09:56.008Z,1.60
2022-07-29T19:12:26.134Z,2.45
2022-07-29T19:14:54.921Z,1.40
2022-07-29T19:17:24.055Z,1.85
2022-07-29T19:19:54.008Z,1.48
2022-07-29T19:22:22.996Z,1.38
2022-07-29T19:24:51.529Z,1.30
2022-07-29T19:27:20.163Z,7.32
2022-07-29T19:29:50.200Z,11.73
2022-07-29T19:32:24.794Z,5.68
2022-07-29T19:35:11.933Z,2.53
2022-07-29T19:37:40.429Z,2.10
2022-07-29T19:40:12.048Z,1.50
2022-07-29T19:42:40.710Z,1.95
2022-07-29T19:45:12.137Z,1.58
2022-07-29T19:47:40.918Z,1.75
2022-07-29T19:50:10.974Z,1.67
2022-07-29T19:52:39.557Z,1.13
2022-07-29T19:55:09.053Z,1.40
2022-07-29T19:57:40.997Z,1.60
2022-07-29T20:00:12.945Z,1.33
2022-07-29T20:02:43.081Z,1.73
2022-07-29T20:05:14.220Z,1.33
2022-07-29T20:07:43.102Z,1.42
2022-07-29T20:10:12.642Z,1.20
2022-07-29T20:12:42.826Z,1.17
2022-07-29T20:15:16.575Z,1.30
2022-07-29T20:17:45.376Z,1.63
2022-07-29T20:20:14.364Z,1.45
2022-07-29T20:22:44.425Z,1.27
2022-07-29T20:25:13.687Z,1.10
2022-07-29T20:27:43.175Z,1.42
2022-07-29T20:30:14.688Z,1.38
2022-07-29T20:32:43.400Z,1.30
2022-07-29T20:35:12.318Z,1.70
2022-07-29T20:37:52.296Z,1.23
2022-07-29T20:40:26.031Z,1.48
2022-07-29T20:42:55.413Z,1.60
2022-07-29T20:45:26.093Z,1.40
2022-07-29T20:47:54.831Z,1.33
2022-07-29T20:50:24.665Z,1.38
2022-07-29T20:52:53.695Z,1.35
2022-07-29T20:55:22.797Z,1.15
2022-07-29T20:57:51.385Z,1.30
2022-07-29T21:00:19.935Z,1.10
2022-07-29T21:02:50.014Z,1.40
2022-07-29T21:05:18.891Z,1.40
2022-07-29T21:07:47.326Z,1.30
2022-07-29T21:10:18.412Z,1.20
2022-07-29T21:12:47.660Z,1.20
2022-07-29T21:15:16.467Z,1.08
2022-07-29T21:17:48.104Z,1.35
2022-07-29T21:20:20.719Z,1.15
2022-07-29T21:22:49.215Z,1.20
2022-07-29T21:25:18.019Z,1.50
2022-07-29T21:28:04.091Z,1.42
2022-07-29T21:30:32.682Z,1.13
2022-07-29T21:33:02.568Z,1.15
2022-07-29T21:38:21.396Z,1.20
2022-07-29T21:40:52.388Z,1.05
2022-07-29T21:43:21.560Z,1.38
2022-07-29T21:45:51.508Z,1.27
2022-07-29T21:48:21.237Z,1.30
2022-07-29T21:50:52.258Z,1.25
2022-07-29T21:53:22.956Z,1.45
2022-07-29T21:55:55.505Z,1.42
2022-07-29T21:58:26.831Z,1.38
2022-07-29T22:00:55.302Z,1.42
2022-07-29T22:03:23.994Z,1.48
2022-07-29T22:05:54.350Z,1.35
2022-07-29T22:08:23.012Z,1.13
2022-07-29T22:10:51.549Z,1.20
2022-07-29T22:13:20.146Z,1.30
2022-07-29T22:15:49.627Z,1.60
2022-07-29T22:18:20.424Z,1.13
2022-07-29T22:23:20.541Z,1.20
2022-07-29T22:25:49.582Z,1.58
2022-07-29T22:28:18.270Z,1.55
2022-07-29T22:30:47.026Z,1.63
2022-07-29T22:33:17.529Z,1.25
2022-07-29T22:35:49.225Z,1.10
2022-07-29T22:38:18.059Z,1.20
2022-07-29T22:40:50.813Z,1.17
2022-07-29T22:43:19.299Z,1.17
2022-07-29T22:45:48.789Z,1.20
2022-07-29T22:48:17.485Z,0.80
2022-07-29T22:50:46.421Z,1.05
2022-07-29T22:53:15.014Z,0.70
2022-07-29T22:55:43.747Z,1.00
2022-07-29T22:58:13.836Z,1.15
2022-07-29T23:00:42.451Z,1.13
2022-07-29T23:03:11.012Z,1.40
2022-07-29T23:05:39.531Z,1.10
2022-07-29T23:08:08.043Z,1.15
2022-07-29T23:10:36.829Z,1.02
2022-07-29T23:13:05.262Z,1.08
2022-07-29T23:15:35.398Z,1.15
2022-07-29T23:18:04.061Z,0.98
2022-07-29T23:20:33.108Z,1.15
2022-07-29T23:23:02.156Z,1.58
2022-07-29T23:25:30.756Z,1.00
2022-07-29T23:27:59.682Z,1.00
2022-07-29T23:30:29.089Z,1.40
2022-07-29T23:32:59.436Z,1.10
2022-07-29T23:35:28.924Z,1.48
2022-07-29T23:37:57.589Z,1.20
2022-07-29T23:40:26.602Z,1.02
2022-07-29T23:42:55.102Z,1.20
2022-07-29T23:45:39.911Z,1.30
2022-07-29T23:48:16.690Z,1.38
2022-07-29T23:50:45.104Z,0.90
2022-07-29T23:53:13.751Z,1.27
2022-07-29T23:55:42.229Z,1.20
2022-07-29T23:58:10.817Z,1.35
